createdAt,value
2018-02-08T00:01:49.041Z,92.60
2018-02-08T00:04:16.612Z,92.60
2018-02-08T00:06:44.185Z,92.60
2018-02-08T00:09:11.770Z,92.60
2018-02-08T00:11:40.281Z,92.80
2018-02-08T00:14:07.873Z,92.80
2018-02-08T00:16:35.432Z,92.80
2018-02-08T00:19:03.141Z,92.70
2018-02-08T00:21:31.473Z,92.70
2018-02-08T00:23:59.802Z,92.70
2018-02-08T00:26:27.376Z,92.70
2018-02-08T00:28:54.936Z,92.70
2018-02-08T00:31:22.907Z,92.70
2018-02-08T00:33:50.478Z,92.60
2018-02-08T00:36:18.034Z,92.80
2018-02-08T00:38:45.598Z,92.90
2018-02-08T00:41:13.170Z,92.80
2018-02-08T00:43:40.754Z,92.70
2018-02-08T00:46:08.377Z,92.70
2018-02-08T00:48:36.240Z,92.70
2018-02-08T00:51:03.803Z,92.70
2018-02-08T00:53:31.357Z,92.80
2018-02-08T00:55:58.984Z,92.80
2018-02-08T00:58:27.337Z,92.80
2018-02-08T01:00:55.744Z,92.90
2018-02-08T01:03:24.130Z,92.90
2018-02-08T01:05:52.554Z,92.80
2018-02-08T01:08:20.253Z,92.80
2018-02-08T01:10:47.877Z,92.80
2018-02-08T01:13:15.455Z,92.90
2018-02-08T01:15:43.019Z,92.90
2018-02-08T01:18:10.582Z,93.00
2018-02-08T01:20:38.172Z,92.90
2018-02-08T01:23:05.748Z,92.80
2018-02-08T01:25:33.335Z,92.90
2018-02-08T01:28:00.977Z,92.90
2018-02-08T01:30:28.661Z,92.90
2018-02-08T01:32:56.224Z,92.90
2018-02-08T01:35:23.798Z,92.80
2018-02-08T01:37:51.354Z,92.90
2018-02-08T01:40:18.978Z,92.90
2018-02-08T01:42:47.320Z,92.80
2018-02-08T01:45:15.646Z,92.80
2018-02-08T01:47:43.227Z,92.80
2018-02-08T01:50:10.777Z,92.90
2018-02-08T01:52:38.305Z,92.90
2018-02-08T01:55:06.650Z,93.00
2018-02-08T01:57:34.251Z,92.90
2018-02-08T02:00:01.818Z,92.90
2018-02-08T02:02:30.161Z,92.90
2018-02-08T02:04:57.766Z,92.90
2018-02-08T02:07:26.469Z,93.00
2018-02-08T02:09:54.026Z,92.90
2018-02-08T02:12:21.593Z,92.90
2018-02-08T02:14:49.316Z,92.90
2018-02-08T02:17:17.654Z,92.90
2018-02-08T02:19:45.225Z,92.90
2018-02-08T02:22:12.921Z,92.90
2018-02-08T02:24:40.550Z,93.30
2018-02-08T02:27:08.127Z,93.00
2018-02-08T02:29:36.486Z,93.00
2018-02-08T02:32:04.053Z,93.00
2018-02-08T02:34:31.636Z,92.90
2018-02-08T02:36:59.201Z,93.00
2018-02-08T02:39:27.582Z,93.20
2018-02-08T02:41:55.934Z,93.20
2018-02-08T02:44:23.512Z,93.20
2018-02-08T02:46:51.834Z,93.20
2018-02-08T02:49:19.394Z,93.20
2018-02-08T02:51:47.022Z,93.20
2018-02-08T02:54:15.453Z,93.20
2018-02-08T02:56:43.063Z,93.10
2018-02-08T02:59:11.486Z,93.30
2018-02-08T03:01:39.053Z,93.10
2018-02-08T03:04:06.655Z,93.10
2018-02-08T03:06:35.070Z,93.10
2018-02-08T03:09:03.386Z,93.10
2018-02-08T03:11:30.947Z,93.10
2018-02-08T03:13:58.502Z,93.10
2018-02-08T03:16:26.093Z,93.10
2018-02-08T03:18:53.671Z,93.10
2018-02-08T03:21:21.273Z,93.10
2018-02-08T03:23:48.882Z,93.00
2018-02-08T03:26:16.436Z,93.00
2018-02-08T03:28:44.760Z,93.00
2018-02-08T03:31:12.325Z,93.00
2018-02-08T03:33:40.047Z,93.00
2018-02-08T03:36:08.360Z,92.90
2018-02-08T03:38:35.915Z,92.90
2018-02-08T03:41:04.237Z,93.00
2018-02-08T03:43:31.799Z,93.00
2018-02-08T03:45:59.350Z,93.00
2018-02-08T03:48:26.933Z,93.00
2018-02-08T03:50:54.469Z,93.10
2018-02-08T03:53:22.080Z,92.90
2018-02-08T03:55:49.730Z,93.00
2018-02-08T03:58:18.053Z,93.10
2018-02-08T04:00:45.645Z,93.00
2018-02-08T04:03:13.197Z,92.90
2018-02-08T04:05:40.750Z,92.90
2018-02-08T04:08:08.308Z,92.90
2018-02-08T04:10:35.881Z,92.90
2018-02-08T04:13:03.649Z,92.90
2018-02-08T04:15:31.204Z,92.90
2018-02-08T04:17:58.873Z,92.90
2018-02-08T04:20:26.425Z,92.80
2018-02-08T04:22:53.997Z,92.80
2018-02-08T04:25:21.641Z,92.80
2018-02-08T04:27:49.196Z,92.80
2018-02-08T04:30:16.818Z,92.80
2018-02-08T04:32:44.561Z,92.90
2018-02-08T04:35:12.148Z,93.00
2018-02-08T04:37:39.806Z,92.80
2018-02-08T04:40:19.239Z,92.80
2018-02-08T04:42:58.594Z,92.80
2018-02-08T04:45:37.897Z,92.80
2018-02-08T04:48:07.480Z,92.90
2018-02-08T04:50:35.086Z,92.60
2018-02-08T04:53:12.571Z,92.70
2018-02-08T04:55:40.900Z,92.80
2018-02-08T04:58:08.488Z,92.80
2018-02-08T05:00:36.080Z,92.70
2018-02-08T05:03:03.647Z,93.00
2018-02-08T05:05:31.211Z,92.60
2018-02-08T05:07:58.770Z,92.80
2018-02-08T05:10:26.497Z,92.90
2018-02-08T05:12:54.032Z,92.80
2018-02-08T05:15:21.613Z,92.70
2018-02-08T05:17:49.324Z,92.60
2018-02-08T05:20:16.874Z,92.60
2018-02-08T05:22:45.189Z,92.40
2018-02-08T05:25:12.800Z,92.70
2018-02-08T05:27:40.364Z,92.80
2018-02-08T05:30:07.923Z,92.70
2018-02-08T05:32:35.482Z,92.50
2018-02-08T05:35:03.033Z,92.40
2018-02-08T05:37:30.593Z,92.60
2018-02-08T05:39:58.188Z,92.60
2018-02-08T05:42:25.799Z,92.70
2018-02-08T05:44:53.317Z,92.60
2018-02-08T05:47:20.896Z,92.50
2018-02-08T05:49:49.222Z,92.60
2018-02-08T05:52:16.978Z,92.50
2018-02-08T05:54:44.545Z,92.60
2018-02-08T05:57:12.113Z,92.60
2018-02-08T05:59:39.721Z,92.60
2018-02-08T06:02:08.043Z,92.60
2018-02-08T06:04:35.605Z,92.60
2018-02-08T06:07:03.163Z,92.50
2018-02-08T06:09:30.725Z,92.50
2018-02-08T06:11:58.328Z,92.50
2018-02-08T06:14:25.944Z,92.40
2018-02-08T06:16:53.528Z,92.70
2018-02-08T06:19:21.890Z,92.30
2018-02-08T06:21:50.251Z,92.50
2018-02-08T06:24:17.806Z,92.40
2018-02-08T06:26:46.146Z,92.60
2018-02-08T06:29:13.711Z,92.60
2018-02-08T06:31:42.052Z,92.50
2018-02-08T06:34:09.646Z,92.50
2018-02-08T06:36:37.294Z,92.50
2018-02-08T06:39:04.836Z,92.40
2018-02-08T06:41:32.413Z,92.30
2018-02-08T06:44:00.033Z,92.20
2018-02-08T06:46:27.573Z,92.20
2018-02-08T06:48:55.985Z,92.30
2018-02-08T06:51:23.565Z,92.30
2018-02-08T06:53:51.165Z,92.30
2018-02-08T06:56:18.746Z,92.40
2018-02-08T06:58:47.069Z,92.30
2018-02-08T07:01:14.854Z,92.20
2018-02-08T07:03:42.405Z,92.20
2018-02-08T07:06:10.061Z,92.30
2018-02-08T07:08:37.636Z,92.40
2018-02-08T07:11:05.228Z,92.40
2018-02-08T07:13:32.865Z,92.50
2018-02-08T07:16:00.504Z,92.50
2018-02-08T07:18:28.089Z,92.40
2018-02-08T07:20:55.770Z,92.40
2018-02-08T07:23:24.135Z,92.40
2018-02-08T07:25:51.690Z,92.50
2018-02-08T07:28:19.292Z,92.50
2018-02-08T07:30:47.746Z,92.50
2018-02-08T07:33:15.549Z,92.50
2018-02-08T07:35:43.862Z,92.60
2018-02-08T07:38:11.439Z,92.60
2018-02-08T07:40:39.081Z,92.70
2018-02-08T07:43:06.717Z,92.70
2018-02-08T07:45:34.305Z,92.80
2018-02-08T07:48:01.892Z,92.70
2018-02-08T07:50:30.330Z,92.60
2018-02-08T07:52:57.901Z,92.60
2018-02-08T07:55:25.478Z,92.60
2018-02-08T07:57:53.122Z,92.70
2018-02-08T08:00:20.704Z,92.60
2018-02-08T08:02:48.555Z,92.70
2018-02-08T08:05:16.124Z,93.00
2018-02-08T08:07:43.689Z,92.70
2018-02-08T08:10:11.356Z,92.70
2018-02-08T08:12:38.929Z,92.30
2018-02-08T08:15:06.501Z,92.20
2018-02-08T08:17:34.071Z,92.30
2018-02-08T08:20:02.409Z,92.10
2018-02-08T08:22:29.994Z,92.10
2018-02-08T08:24:57.563Z,92.10
2018-02-08T08:27:25.153Z,91.50
2018-02-08T08:29:53.490Z,91.80
2018-02-08T08:32:21.082Z,91.80
2018-02-08T08:34:48.693Z,91.50
2018-02-08T08:37:16.261Z,91.10
2018-02-08T08:39:43.833Z,91.00
2018-02-08T08:42:11.425Z,91.00
2018-02-08T08:44:38.989Z,91.20
2018-02-08T08:47:07.333Z,90.90
2018-02-08T08:49:34.909Z,90.90
2018-02-08T08:52:02.492Z,90.90
2018-02-08T08:54:31.862Z,91.10
2018-02-08T08:56:59.781Z,90.90
2018-02-08T08:59:28.137Z,90.40
2018-02-08T09:01:55.729Z,90.40
2018-02-08T09:04:23.370Z,89.10
2018-02-08T09:06:50.929Z,90.20
2018-02-08T09:09:19.278Z,90.60
2018-02-08T09:11:46.832Z,90.60
2018-02-08T09:14:14.391Z,87.30
2018-02-08T09:16:42.000Z,85.10
2018-02-08T09:19:10.437Z,88.80
2018-02-08T09:21:38.000Z,88.80
2018-02-08T09:24:05.631Z,84.50
2018-02-08T09:26:33.239Z,84.80
2018-02-08T09:29:00.837Z,82.20
2018-02-08T09:31:28.419Z,81.90
2018-02-08T09:33:56.189Z,82.10
2018-02-08T09:36:23.769Z,82.40
2018-02-08T09:38:51.361Z,82.70
2018-02-08T09:41:18.882Z,80.30
2018-02-08T09:43:46.449Z,80.80
2018-02-08T09:46:14.001Z,79.70
2018-02-08T09:48:41.578Z,78.70
2018-02-08T09:51:09.179Z,81.70
2018-02-08T09:53:36.738Z,79.00
2018-02-08T09:56:05.072Z,79.80
2018-02-08T09:58:32.725Z,79.80
2018-02-08T10:01:00.286Z,71.60
2018-02-08T10:03:27.846Z,76.00
2018-02-08T10:05:55.439Z,72.00
2018-02-08T10:08:22.995Z,67.80
2018-02-08T10:10:50.553Z,70.10
2018-02-08T10:13:18.121Z,66.60
2018-02-08T10:15:46.841Z,63.80
2018-02-08T10:18:14.403Z,63.30
2018-02-08T10:20:42.018Z,65.00
2018-02-08T10:23:09.592Z,63.80
2018-02-08T10:25:37.170Z,61.20
2018-02-08T10:28:05.511Z,63.30
2018-02-08T10:30:33.067Z,63.20
2018-02-08T10:33:00.631Z,59.60
2018-02-08T10:35:28.222Z,60.50
2018-02-08T10:37:56.533Z,55.80
2018-02-08T10:40:24.120Z,55.60
2018-02-08T10:42:51.682Z,56.10
2018-02-08T10:45:19.247Z,49.90
2018-02-08T10:47:46.921Z,50.00
2018-02-08T10:50:14.493Z,51.60
2018-02-08T10:52:42.805Z,51.90
2018-02-08T10:55:10.936Z,51.90
2018-02-08T10:57:38.554Z,49.80
2018-02-08T11:00:06.116Z,51.30
2018-02-08T11:02:33.693Z,52.40
2018-02-08T11:05:01.309Z,53.90
2018-02-08T11:07:29.665Z,53.00
2018-02-08T11:09:57.399Z,53.00
2018-02-08T11:12:24.976Z,52.50
2018-02-08T11:14:52.550Z,54.20
2018-02-08T11:17:20.129Z,53.90
2018-02-08T11:19:48.467Z,55.20
2018-02-08T11:22:16.013Z,55.20
2018-02-08T11:24:43.588Z,55.10
2018-02-08T11:27:11.149Z,53.80
2018-02-08T11:29:38.748Z,54.10
2018-02-08T11:32:07.109Z,54.10
2018-02-08T11:34:34.700Z,54.10
2018-02-08T11:37:03.059Z,52.30
2018-02-08T11:39:30.643Z,52.20
2018-02-08T11:41:58.984Z,54.20
2018-02-08T11:44:26.537Z,54.20
2018-02-08T11:46:54.095Z,52.40
2018-02-08T11:49:21.732Z,52.90
2018-02-08T11:51:49.297Z,54.50
2018-02-08T11:54:16.878Z,53.30
2018-02-08T11:56:44.446Z,54.00
2018-02-08T11:59:11.996Z,57.30
2018-02-08T12:01:39.561Z,53.20
2018-02-08T12:04:07.106Z,53.80
2018-02-08T12:06:34.719Z,54.20
2018-02-08T12:09:02.249Z,54.80
2018-02-08T12:11:29.851Z,51.50
2018-02-08T12:13:57.430Z,50.90
2018-02-08T12:16:25.814Z,52.00
2018-02-08T12:18:54.232Z,52.80
2018-02-08T12:21:21.813Z,52.70
2018-02-08T12:23:49.393Z,50.40
2018-02-08T12:26:17.121Z,49.80
2018-02-08T12:28:44.694Z,52.90
2018-02-08T12:31:12.572Z,52.60
2018-02-08T12:33:40.157Z,51.50
2018-02-08T12:36:08.514Z,51.30
2018-02-08T12:38:36.089Z,51.30
2018-02-08T12:41:04.413Z,49.30
2018-02-08T12:43:31.981Z,49.30
2018-02-08T12:45:59.567Z,48.80
2018-02-08T12:48:27.189Z,49.90
2018-02-08T12:50:55.632Z,51.20
2018-02-08T12:53:23.203Z,53.40
2018-02-08T12:55:50.838Z,52.50
2018-02-08T12:58:18.468Z,51.90
2018-02-08T13:00:46.098Z,49.50
2018-02-08T13:03:13.696Z,49.80
2018-02-08T13:05:41.273Z,50.40
2018-02-08T13:08:09.617Z,48.90
2018-02-08T13:10:37.197Z,48.90
2018-02-08T13:13:04.768Z,48.60
2018-02-08T13:15:32.389Z,48.50
2018-02-08T13:17:59.971Z,50.50
2018-02-08T13:20:27.569Z,51.40
2018-02-08T13:22:55.967Z,50.20
2018-02-08T13:25:23.541Z,50.70
2018-02-08T13:27:51.103Z,49.20
2018-02-08T13:30:18.693Z,49.10
2018-02-08T13:32:46.257Z,48.30
2018-02-08T13:35:13.835Z,48.50
2018-02-08T13:37:41.404Z,48.00
2018-02-08T13:40:12.565Z,47.30
2018-02-08T13:42:40.921Z,50.30
2018-02-08T13:45:08.502Z,50.20
2018-02-08T13:47:56.424Z,46.80
2018-02-08T13:53:31.180Z,46.30
2018-02-08T13:56:04.476Z,47.20
2018-02-08T13:58:38.403Z,48.40
2018-02-08T14:04:08.637Z,48.40
2018-02-08T14:06:36.222Z,49.60
2018-02-08T14:09:04.674Z,46.70
2018-02-08T14:11:32.331Z,46.70
2018-02-08T14:13:59.874Z,46.60
2018-02-08T14:16:27.466Z,46.40
2018-02-08T14:18:55.183Z,48.10
2018-02-08T14:21:22.814Z,48.70
2018-02-08T14:23:50.372Z,48.30
2018-02-08T14:26:18.781Z,49.60
2018-02-08T14:28:46.875Z,49.60
2018-02-08T14:31:14.442Z,50.20
2018-02-08T14:33:42.010Z,50.10
2018-02-08T14:36:09.568Z,50.60
2018-02-08T14:38:37.138Z,50.20
2018-02-08T14:41:04.727Z,50.80
2018-02-08T14:43:32.280Z,51.60
2018-02-08T14:46:00.653Z,52.90
2018-02-08T14:48:28.214Z,52.90
2018-02-08T14:50:55.817Z,52.90
2018-02-08T14:53:27.302Z,52.60
2018-02-08T14:55:54.964Z,52.60
2018-02-08T14:58:22.505Z,53.00
2018-02-08T15:00:50.084Z,53.20
2018-02-08T15:03:17.651Z,52.50
2018-02-08T15:05:45.249Z,53.50
2018-02-08T15:08:12.867Z,53.30
2018-02-08T15:10:40.456Z,52.60
2018-02-08T15:13:08.082Z,53.40
2018-02-08T15:15:35.659Z,53.00
2018-02-08T15:18:03.406Z,53.00
2018-02-08T15:20:31.731Z,53.60
2018-02-08T15:22:59.296Z,53.60
2018-02-08T15:25:26.915Z,53.10
2018-02-08T15:27:54.466Z,53.00
2018-02-08T15:30:22.825Z,53.90
2018-02-08T15:32:50.407Z,54.50
2018-02-08T15:35:18.757Z,54.40
2018-02-08T15:37:46.325Z,54.40
2018-02-08T15:40:13.932Z,54.80
2018-02-08T15:42:41.558Z,54.10
2018-02-08T15:45:09.164Z,54.40
2018-02-08T15:47:36.736Z,54.70
2018-02-08T15:50:04.332Z,55.60
2018-02-08T15:52:32.101Z,55.20
2018-02-08T15:54:59.732Z,55.70
2018-02-08T15:57:27.322Z,54.30
2018-02-08T15:59:54.892Z,55.10
2018-02-08T16:02:22.480Z,55.10
2018-02-08T16:04:51.367Z,55.00
2018-02-08T16:07:20.049Z,55.60
2018-02-08T16:09:47.650Z,55.60
2018-02-08T16:12:15.237Z,55.30
2018-02-08T16:14:42.825Z,55.60
2018-02-08T16:17:10.408Z,55.40
2018-02-08T16:19:38.055Z,55.50
2018-02-08T16:22:05.713Z,55.40
2018-02-08T16:24:33.266Z,55.60
2018-02-08T16:27:00.879Z,55.60
2018-02-08T16:29:28.441Z,56.00
2018-02-08T16:31:56.016Z,56.60
2018-02-08T16:34:23.617Z,57.00
2018-02-08T16:36:51.429Z,58.70
2018-02-08T16:39:19.016Z,58.80
2018-02-08T16:41:46.639Z,59.10
2018-02-08T16:44:14.994Z,60.40
2018-02-08T16:46:44.685Z,61.80
2018-02-08T16:49:12.412Z,61.00
2018-02-08T16:51:40.036Z,61.40
2018-02-08T16:54:07.632Z,62.30
2018-02-08T16:56:35.303Z,63.00
2018-02-08T16:59:02.921Z,64.00
2018-02-08T17:01:31.267Z,67.00
2018-02-08T17:03:58.890Z,67.00
2018-02-08T17:06:26.499Z,67.90
2018-02-08T17:08:54.057Z,69.10
2018-02-08T17:11:21.692Z,70.60
2018-02-08T17:13:49.332Z,72.20
2018-02-08T17:16:16.927Z,73.40
2018-02-08T17:18:44.509Z,74.90
2018-02-08T17:21:12.092Z,76.50
2018-02-08T17:23:39.648Z,77.70
2018-02-08T17:26:07.282Z,78.20
2018-02-08T17:28:34.897Z,79.90
2018-02-08T17:31:02.519Z,79.90
2018-02-08T17:33:30.099Z,80.90
2018-02-08T17:35:57.655Z,81.20
2018-02-08T17:38:25.214Z,81.60
2018-02-08T17:40:52.823Z,81.90
2018-02-08T17:43:21.415Z,82.30
2018-02-08T17:45:49.000Z,83.30
2018-02-08T17:48:16.617Z,83.70
2018-02-08T17:50:44.232Z,83.50
2018-02-08T17:53:11.808Z,83.90
2018-02-08T17:55:39.381Z,84.30
2018-02-08T17:58:07.727Z,84.40
2018-02-08T18:00:35.305Z,84.40
2018-02-08T18:03:02.924Z,84.20
2018-02-08T18:05:30.534Z,84.30
2018-02-08T18:07:58.708Z,84.20
2018-02-08T18:10:26.288Z,84.50
2018-02-08T18:12:54.796Z,86.20
2018-02-08T18:15:22.389Z,85.40
2018-02-08T18:17:49.954Z,85.90
2018-02-08T18:20:17.519Z,86.30
2018-02-08T18:22:45.124Z,86.30
2018-02-08T18:25:13.469Z,86.30
2018-02-08T18:27:41.109Z,86.30
2018-02-08T18:30:08.685Z,86.50
2018-02-08T18:32:37.037Z,87.40
2018-02-08T18:35:04.598Z,87.50
2018-02-08T18:37:32.339Z,87.60
2018-02-08T18:40:00.098Z,87.70
2018-02-08T18:42:41.639Z,88.30
2018-02-08T18:45:09.204Z,88.30
2018-02-08T18:47:36.855Z,89.30
2018-02-08T18:50:05.178Z,88.70
2018-02-08T18:52:32.806Z,88.70
2018-02-08T18:55:01.175Z,88.90
2018-02-08T18:57:29.523Z,89.00
2018-02-08T18:59:57.114Z,89.00
2018-02-08T19:02:24.705Z,89.60
2018-02-08T19:04:53.105Z,89.30
2018-02-08T19:07:20.871Z,89.20
2018-02-08T19:09:48.433Z,89.30
2018-02-08T19:12:16.023Z,89.30
2018-02-08T19:14:43.601Z,89.10
2018-02-08T19:17:13.773Z,89.20
2018-02-08T19:19:45.923Z,89.20
2018-02-08T19:22:17.019Z,88.50
2018-02-08T19:24:45.373Z,88.50
2018-02-08T19:27:12.952Z,88.00
2018-02-08T19:29:40.669Z,87.70
2018-02-08T19:32:08.274Z,87.50
2018-02-08T19:34:35.886Z,86.40
2018-02-08T19:37:03.472Z,85.50
2018-02-08T19:39:31.077Z,85.40
2018-02-08T19:42:00.046Z,84.60
2018-02-08T19:44:27.617Z,84.60
2018-02-08T19:46:55.992Z,84.30
2018-02-08T19:49:24.365Z,84.80
2018-02-08T19:51:51.924Z,84.40
2018-02-08T19:54:19.558Z,84.20
2018-02-08T19:56:47.705Z,84.40
2018-02-08T19:59:19.514Z,84.40
2018-02-08T20:01:47.285Z,84.30
2018-02-08T20:04:14.995Z,84.30
2018-02-08T20:06:42.653Z,84.70
2018-02-08T20:09:10.278Z,84.70
2018-02-08T20:11:38.012Z,85.00
2018-02-08T20:14:11.269Z,85.10
2018-02-08T20:16:40.874Z,84.90
2018-02-08T20:19:08.584Z,85.00
2018-02-08T20:21:36.201Z,85.30
2018-02-08T20:24:03.859Z,85.10
2018-02-08T20:26:31.524Z,84.60
2018-02-08T20:28:59.179Z,84.90
2018-02-08T20:31:29.214Z,85.20
2018-02-08T20:33:56.838Z,85.20
2018-02-08T20:36:24.436Z,85.40
2018-02-08T20:38:52.767Z,86.00
2018-02-08T20:41:21.284Z,86.10
2018-02-08T20:43:48.897Z,86.00
2018-02-08T20:46:16.877Z,85.80
2018-02-08T20:48:44.516Z,85.30
2018-02-08T20:51:12.158Z,85.40
2018-02-08T20:53:39.749Z,85.00
2018-02-08T20:56:07.366Z,85.00
2018-02-08T20:58:35.008Z,85.20
2018-02-08T21:01:02.682Z,85.30
2018-02-08T21:03:34.966Z,85.60
2018-02-08T21:06:03.457Z,86.10
2018-02-08T21:08:32.226Z,85.90
2018-02-08T21:10:59.908Z,85.90
2018-02-08T21:13:28.503Z,85.60
2018-02-08T21:15:56.623Z,85.50
2018-02-08T21:18:24.684Z,85.50
2018-02-08T21:20:52.872Z,85.60
2018-02-08T21:23:20.476Z,86.10
2018-02-08T21:25:48.140Z,86.00
2018-02-08T21:28:17.819Z,85.90
2018-02-08T21:30:46.306Z,85.50
2018-02-08T21:33:14.039Z,85.60
2018-02-08T21:35:41.964Z,85.50
2018-02-08T21:38:09.752Z,85.40
2018-02-08T21:40:37.488Z,85.30
2018-02-08T21:43:05.320Z,85.00
2018-02-08T21:45:38.038Z,85.10
2018-02-08T21:48:05.859Z,85.10
2018-02-08T21:50:33.596Z,84.70
2018-02-08T21:53:01.479Z,84.80
2018-02-08T21:55:29.149Z,84.30
2018-02-08T21:57:57.093Z,84.20
2018-02-08T22:00:26.647Z,84.50
2018-02-08T22:02:54.359Z,84.50
2018-02-08T22:05:21.929Z,84.50
2018-02-08T22:07:49.512Z,84.80
2018-02-08T22:10:17.077Z,85.00
2018-02-08T22:12:44.680Z,85.10
2018-02-08T22:15:13.042Z,85.10
2018-02-08T22:17:40.642Z,85.10
2018-02-08T22:20:08.355Z,84.80
2018-02-08T22:22:35.946Z,85.20
2018-02-08T22:25:04.318Z,85.30
2018-02-08T22:27:32.681Z,85.30
2018-02-08T22:30:00.275Z,85.30
2018-02-08T22:32:28.611Z,85.60
2018-02-08T22:34:56.253Z,85.60
2018-02-08T22:37:23.811Z,85.70
2018-02-08T22:39:51.404Z,85.90
2018-02-08T22:42:18.973Z,85.70
2018-02-08T22:44:46.692Z,85.60
2018-02-08T22:47:14.281Z,85.50
2018-02-08T22:49:41.865Z,85.60
2018-02-08T22:52:10.209Z,86.00
2018-02-08T22:54:37.928Z,85.90
2018-02-08T22:57:06.276Z,86.20
2018-02-08T22:59:35.065Z,86.20
2018-02-08T23:02:02.629Z,86.60
2018-02-08T23:04:30.622Z,86.90
2018-02-08T23:06:58.998Z,87.00
2018-02-08T23:09:27.338Z,87.00
2018-02-08T23:11:54.942Z,87.00
2018-02-08T23:14:23.286Z,86.80
2018-02-08T23:16:50.867Z,86.80
2018-02-08T23:19:19.242Z,87.00
2018-02-08T23:21:46.803Z,87.00
2018-02-08T23:24:14.609Z,86.90
2018-02-08T23:26:42.166Z,86.70
2018-02-08T23:29:09.847Z,86.70
2018-02-08T23:31:37.457Z,86.90
2018-02-08T23:34:06.542Z,86.90
2018-02-08T23:36:34.187Z,86.90
2018-02-08T23:39:01.839Z,86.80
2018-02-08T23:41:29.901Z,87.00
2018-02-08T23:43:57.493Z,87.00
2018-02-08T23:46:25.091Z,87.40
2018-02-08T23:48:52.724Z,86.90
2018-02-08T23:51:20.279Z,87.00
2018-02-08T23:53:48.694Z,87.10
2018-02-08T23:56:17.041Z,86.70
2018-02-08T23:58:44.629Z,86.70
